Terminal Aerodrome Forecast
Issued by NWS Knoxville/Tri Cities, TN

Home | Current Version | Previous Version | Text Only | Print | Product List | Glossary On
Versions: 1 2 3 4 5 6 7 8 9 10 11 12 13
000
FTUS44 KMRX 262320
TAFCHA
TAF
KCHA 262320Z 2700/2724 29005KT P6SM SCT050 SCT150
     FM270300 00000KT P6SM SCT150
     FM271000 36003KT P6SM OVC100
     FM271800 36006KT P6SM SCT060=

USA.gov is the U.S. government's official web portal to all federal, state and local government web resources and services.